sensor_id;sensor_type;location;lat;lon;timestamp;temperature;humidity
7574;DHT22;3828;48.922;9.116;2022-12-29T00:02:25;9.90;99.90
7574;DHT22;3828;48.922;9.116;2022-12-29T00:04:52;9.80;99.90
7574;DHT22;3828;48.922;9.116;2022-12-29T00:07:19;9.80;99.90
7574;DHT22;3828;48.922;9.116;2022-12-29T00:09:46;9.80;99.90
7574;DHT22;3828;48.922;9.116;2022-12-29T00:12:13;13.90;99.90
7574;DHT22;3828;48.922;9.116;2022-12-29T00:14:41;9.80;99.90
7574;DHT22;3828;48.922;9.116;2022-12-29T00:17:25;11.50;99.90
7574;DHT22;3828;48.922;9.116;2022-12-29T00:19:52;9.80;99.90
7574;DHT22;3828;48.922;9.116;2022-12-29T00:22:36;9.80;99.90
7574;DHT22;3828;48.922;9.116;2022-12-29T00:25:20;9.80;99.90
7574;DHT22;3828;48.922;9.116;2022-12-29T00:28:06;9.80;99.90
7574;DHT22;3828;48.922;9.116;2022-12-29T00:30:52;9.80;99.90
7574;DHT22;3828;48.922;9.116;2022-12-29T00:33:37;9.90;99.90
7574;DHT22;3828;48.922;9.116;2022-12-29T00:36:24;9.80;99.90
7574;DHT22;3828;48.922;9.116;2022-12-29T00:38:56;9.80;99.90
7574;DHT22;3828;48.922;9.116;2022-12-29T00:41:41;10.50;99.90
7574;DHT22;3828;48.922;9.116;2022-12-29T00:44:26;9.70;99.90
7574;DHT22;3828;48.922;9.116;2022-12-29T00:46:54;5.70;99.90
7574;DHT22;3828;48.922;9.116;2022-12-29T00:49:21;9.60;99.90
7574;DHT22;3828;48.922;9.116;2022-12-29T00:51:58;11.80;99.90
7574;DHT22;3828;48.922;9.116;2022-12-29T00:54:26;9.60;99.90
7574;DHT22;3828;48.922;9.116;2022-12-29T00:56:53;9.60;99.90
7574;DHT22;3828;48.922;9.116;2022-12-29T00:59:20;9.70;99.90
7574;DHT22;3828;48.922;9.116;2022-12-29T01:01:50;9.70;99.90
7574;DHT22;3828;48.922;9.116;2022-12-29T01:04:19;12.10;99.90
7574;DHT22;3828;48.922;9.116;2022-12-29T01:06:45;9.80;99.90
7574;DHT22;3828;48.922;9.116;2022-12-29T01:09:12;9.80;99.90
7574;DHT22;3828;48.922;9.116;2022-12-29T01:11:58;9.80;99.90
7574;DHT22;3828;48.922;9.116;2022-12-29T01:14:25;12.50;99.90
7574;DHT22;3828;48.922;9.116;2022-12-29T01:16:52;9.80;99.90
7574;DHT22;3828;48.922;9.116;2022-12-29T01:19:22;10.50;99.90
7574;DHT22;3828;48.922;9.116;2022-12-29T01:21:49;9.80;99.90
7574;DHT22;3828;48.922;9.116;2022-12-29T01:24:16;13.00;99.90
7574;DHT22;3828;48.922;9.116;2022-12-29T01:26:44;9.80;99.90
7574;DHT22;3828;48.922;9.116;2022-12-29T01:29:11;9.70;99.90
7574;DHT22;3828;48.922;9.116;2022-12-29T01:31:38;9.80;99.90
7574;DHT22;3828;48.922;9.116;2022-12-29T01:34:05;13.70;99.90
7574;DHT22;3828;48.922;9.116;2022-12-29T01:36:35;11.70;99.90
7574;DHT22;3828;48.922;9.116;2022-12-29T01:39:02;9.70;99.90
7574;DHT22;3828;48.922;9.116;2022-12-29T01:41:29;9.70;99.90
7574;DHT22;3828;48.922;9.116;2022-12-29T01:43:58;11.50;99.90
7574;DHT22;3828;48.922;9.116;2022-12-29T01:46:29;12.30;99.90
7574;DHT22;3828;48.922;9.116;2022-12-29T01:49:02;9.90;99.90
7574;DHT22;3828;48.922;9.116;2022-12-29T01:51:31;10.00;99.90
7574;DHT22;3828;48.922;9.116;2022-12-29T01:54:01;10.10;99.90
7574;DHT22;3828;48.922;9.116;2022-12-29T01:56:32;11.80;99.90
7574;DHT22;3828;48.922;9.116;2022-12-29T01:59:02;10.20;99.90
7574;DHT22;3828;48.922;9.116;2022-12-29T02:01:30;10.30;99.90
7574;DHT22;3828;48.922;9.116;2022-12-29T02:03:57;10.40;99.90
7574;DHT22;3828;48.922;9.116;2022-12-29T02:06:28;10.40;99.90
7574;DHT22;3828;48.922;9.116;2022-12-29T02:08:56;10.30;99.90
7574;DHT22;3828;48.922;9.116;2022-12-29T02:11:25;10.30;99.90
7574;DHT22;3828;48.922;9.116;2022-12-29T02:13:53;11.30;99.90
7574;DHT22;3828;48.922;9.116;2022-12-29T02:16:36;10.40;99.90
7574;DHT22;3828;48.922;9.116;2022-12-29T02:19:39;10.30;99.90
7574;DHT22;3828;48.922;9.116;2022-12-29T02:22:18;10.30;99.90
7574;DHT22;3828;48.922;9.116;2022-12-29T02:25:16;10.20;99.90
7574;DHT22;3828;48.922;9.116;2022-12-29T02:28:09;10.90;99.90
7574;DHT22;3828;48.922;9.116;2022-12-29T02:30:57;9.90;99.90
7574;DHT22;3828;48.922;9.116;2022-12-29T02:33:38;9.80;99.90
7574;DHT22;3828;48.922;9.116;2022-12-29T02:36:14;12.50;99.90
7574;DHT22;3828;48.922;9.116;2022-12-29T02:38:53;9.70;99.90
7574;DHT22;3828;48.922;9.116;2022-12-29T02:41:24;9.90;99.90
7574;DHT22;3828;48.922;9.116;2022-12-29T02:43:59;9.70;99.90
7574;DHT22;3828;48.922;9.116;2022-12-29T02:46:35;10.00;99.90
7574;DHT22;3828;48.922;9.116;2022-12-29T02:49:07;10.40;99.90
7574;DHT22;3828;48.922;9.116;2022-12-29T02:51:44;11.10;99.90
7574;DHT22;3828;48.922;9.116;2022-12-29T02:54:13;10.90;99.90
7574;DHT22;3828;48.922;9.116;2022-12-29T02:57:00;11.00;99.90
7574;DHT22;3828;48.922;9.116;2022-12-29T02:59:27;11.20;99.90
7574;DHT22;3828;48.922;9.116;2022-12-29T03:02:13;11.30;99.90
7574;DHT22;3828;48.922;9.116;2022-12-29T03:05:05;12.10;99.90
7574;DHT22;3828;48.922;9.116;2022-12-29T03:07:40;11.50;99.90
7574;DHT22;3828;48.922;9.116;2022-12-29T03:10:17;12.10;99.90
7574;DHT22;3828;48.922;9.116;2022-12-29T03:12:49;12.60;99.90
7574;DHT22;3828;48.922;9.116;2022-12-29T03:15:40;11.70;99.90
7574;DHT22;3828;48.922;9.116;2022-12-29T03:18:45;13.00;99.90
7574;DHT22;3828;48.922;9.116;2022-12-29T03:21:17;11.80;99.90
7574;DHT22;3828;48.922;9.116;2022-12-29T03:23:48;11.80;99.90
7574;DHT22;3828;48.922;9.116;2022-12-29T03:26:17;11.80;99.90
7574;DHT22;3828;48.922;9.116;2022-12-29T03:28:48;11.80;99.90
7574;DHT22;3828;48.922;9.116;2022-12-29T03:31:17;11.90;99.90
7574;DHT22;3828;48.922;9.116;2022-12-29T03:33:47;12.00;99.90
7574;DHT22;3828;48.922;9.116;2022-12-29T03:36:20;12.00;99.90
7574;DHT22;3828;48.922;9.116;2022-12-29T03:38:53;12.10;99.90
7574;DHT22;3828;48.922;9.116;2022-12-29T03:41:27;12.20;99.90
7574;DHT22;3828;48.922;9.116;2022-12-29T03:43:55;12.10;99.90
7574;DHT22;3828;48.922;9.116;2022-12-29T03:46:22;13.30;99.90
7574;DHT22;3828;48.922;9.116;2022-12-29T03:48:50;12.10;99.90
7574;DHT22;3828;48.922;9.116;2022-12-29T03:51:17;12.10;99.90
7574;DHT22;3828;48.922;9.116;2022-12-29T03:53:44;13.30;99.90
7574;DHT22;3828;48.922;9.116;2022-12-29T03:56:10;12.00;99.90
7574;DHT22;3828;48.922;9.116;2022-12-29T03:58:37;12.20;99.90
7574;DHT22;3828;48.922;9.116;2022-12-29T04:01:04;12.60;99.90
7574;DHT22;3828;48.922;9.116;2022-12-29T04:03:31;11.90;99.90
7574;DHT22;3828;48.922;9.116;2022-12-29T04:05:59;12.00;99.90
7574;DHT22;3828;48.922;9.116;2022-12-29T04:08:26;11.90;99.90
7574;DHT22;3828;48.922;9.116;2022-12-29T04:10:53;12.60;99.90
7574;DHT22;3828;48.922;9.116;2022-12-29T04:13:19;11.90;99.90
7574;DHT22;3828;48.922;9.116;2022-12-29T04:15:46;11.90;99.90
7574;DHT22;3828;48.922;9.116;2022-12-29T04:18:13;14.90;99.90
7574;DHT22;3828;48.922;9.116;2022-12-29T04:20:41;11.90;99.90
7574;DHT22;3828;48.922;9.116;2022-12-29T04:23:28;11.90;99.90
7574;DHT22;3828;48.922;9.116;2022-12-29T04:25:55;12.00;99.90
7574;DHT22;3828;48.922;9.116;2022-12-29T04:28:22;12.10;99.90
7574;DHT22;3828;48.922;9.116;2022-12-29T04:30:49;12.10;99.90
7574;DHT22;3828;48.922;9.116;2022-12-29T04:33:16;12.10;99.90
7574;DHT22;3828;48.922;9.116;2022-12-29T04:35:43;12.10;99.90
7574;DHT22;3828;48.922;9.116;2022-12-29T04:38:10;12.00;99.90
7574;DHT22;3828;48.922;9.116;2022-12-29T04:40:40;12.10;99.90
7574;DHT22;3828;48.922;9.116;2022-12-29T04:43:07;13.60;99.90
7574;DHT22;3828;48.922;9.116;2022-12-29T04:45:34;12.00;99.90
7574;DHT22;3828;48.922;9.116;2022-12-29T04:48:00;12.00;99.90
7574;DHT22;3828;48.922;9.116;2022-12-29T04:50:28;12.00;99.90
7574;DHT22;3828;48.922;9.116;2022-12-29T04:52:54;11.90;99.90
7574;DHT22;3828;48.922;9.116;2022-12-29T04:55:21;12.00;99.90
7574;DHT22;3828;48.922;9.116;2022-12-29T04:57:49;11.90;99.90
7574;DHT22;3828;48.922;9.116;2022-12-29T05:00:16;12.00;99.90
7574;DHT22;3828;48.922;9.116;2022-12-29T05:02:43;12.10;99.90
7574;DHT22;3828;48.922;9.116;2022-12-29T05:05:10;12.10;99.90
7574;DHT22;3828;48.922;9.116;2022-12-29T05:07:37;12.10;99.90
7574;DHT22;3828;48.922;9.116;2022-12-29T05:10:05;12.10;99.90
7574;DHT22;3828;48.922;9.116;2022-12-29T05:12:33;12.00;99.90
7574;DHT22;3828;48.922;9.116;2022-12-29T05:15:03;11.90;99.90
7574;DHT22;3828;48.922;9.116;2022-12-29T05:17:30;11.80;99.90
7574;DHT22;3828;48.922;9.116;2022-12-29T05:19:57;11.80;99.90
7574;DHT22;3828;48.922;9.116;2022-12-29T05:22:24;14.90;99.90
7574;DHT22;3828;48.922;9.116;2022-12-29T05:24:51;13.40;99.90
7574;DHT22;3828;48.922;9.116;2022-12-29T05:27:18;12.60;99.90
7574;DHT22;3828;48.922;9.116;2022-12-29T05:29:45;11.80;99.90
7574;DHT22;3828;48.922;9.116;2022-12-29T05:32:13;11.80;99.90
7574;DHT22;3828;48.922;9.116;2022-12-29T05:34:40;11.70;99.90
7574;DHT22;3828;48.922;9.116;2022-12-29T05:37:07;11.70;99.90
7574;DHT22;3828;48.922;9.116;2022-12-29T05:39:34;11.70;99.90
7574;DHT22;3828;48.922;9.116;2022-12-29T05:42:00;11.70;99.90
7574;DHT22;3828;48.922;9.116;2022-12-29T05:44:27;11.80;99.90
7574;DHT22;3828;48.922;9.116;2022-12-29T05:46:54;11.90;99.90
7574;DHT22;3828;48.922;9.116;2022-12-29T05:49:22;12.00;99.90
7574;DHT22;3828;48.922;9.116;2022-12-29T05:51:49;12.00;99.90
7574;DHT22;3828;48.922;9.116;2022-12-29T05:54:16;14.60;99.90
7574;DHT22;3828;48.922;9.116;2022-12-29T05:56:43;12.80;99.90
7574;DHT22;3828;48.922;9.116;2022-12-29T05:59:09;12.00;99.90
7574;DHT22;3828;48.922;9.116;2022-12-29T06:01:36;12.10;99.90
7574;DHT22;3828;48.922;9.116;2022-12-29T06:04:03;12.00;99.90
7574;DHT22;3828;48.922;9.116;2022-12-29T06:06:31;12.00;99.90
7574;DHT22;3828;48.922;9.116;2022-12-29T06:08:58;12.00;99.90
7574;DHT22;3828;48.922;9.116;2022-12-29T06:11:25;12.00;99.90
7574;DHT22;3828;48.922;9.116;2022-12-29T06:13:52;12.00;99.90
7574;DHT22;3828;48.922;9.116;2022-12-29T06:16:19;12.00;99.90
7574;DHT22;3828;48.922;9.116;2022-12-29T06:18:46;11.90;99.90
7574;DHT22;3828;48.922;9.116;2022-12-29T06:21:12;12.00;99.90
7574;DHT22;3828;48.922;9.116;2022-12-29T06:23:41;12.00;99.90
7574;DHT22;3828;48.922;9.116;2022-12-29T06:26:07;12.00;99.90
7574;DHT22;3828;48.922;9.116;2022-12-29T06:28:34;12.00;99.90
7574;DHT22;3828;48.922;9.116;2022-12-29T06:31:01;13.30;99.90
7574;DHT22;3828;48.922;9.116;2022-12-29T06:33:28;11.90;99.90
7574;DHT22;3828;48.922;9.116;2022-12-29T06:35:55;11.90;99.90
7574;DHT22;3828;48.922;9.116;2022-12-29T06:38:24;11.80;99.90
7574;DHT22;3828;48.922;9.116;2022-12-29T06:40:52;11.80;99.90
7574;DHT22;3828;48.922;9.116;2022-12-29T06:43:19;13.10;99.90
7574;DHT22;3828;48.922;9.116;2022-12-29T06:45:46;11.70;99.90
7574;DHT22;3828;48.922;9.116;2022-12-29T06:48:13;11.70;99.90
7574;DHT22;3828;48.922;9.116;2022-12-29T06:50:40;9.70;99.90
7574;DHT22;3828;48.922;9.116;2022-12-29T06:53:07;13.30;99.90
7574;DHT22;3828;48.922;9.116;2022-12-29T06:55:34;11.50;99.90
7574;DHT22;3828;48.922;9.116;2022-12-29T06:58:02;14.70;99.90
7574;DHT22;3828;48.922;9.116;2022-12-29T07:00:29;11.50;99.90
7574;DHT22;3828;48.922;9.116;2022-12-29T07:02:56;12.80;99.90
7574;DHT22;3828;48.922;9.116;2022-12-29T07:05:23;11.40;99.90
7574;DHT22;3828;48.922;9.116;2022-12-29T07:07:53;14.30;99.90
7574;DHT22;3828;48.922;9.116;2022-12-29T07:10:19;11.70;99.90
7574;DHT22;3828;48.922;9.116;2022-12-29T07:12:46;11.40;99.90
7574;DHT22;3828;48.922;9.116;2022-12-29T07:15:14;11.20;99.90
7574;DHT22;3828;48.922;9.116;2022-12-29T07:17:41;11.10;99.90
7574;DHT22;3828;48.922;9.116;2022-12-29T07:20:09;11.10;99.90
7574;DHT22;3828;48.922;9.116;2022-12-29T07:22:36;11.00;99.90
7574;DHT22;3828;48.922;9.116;2022-12-29T07:25:04;11.00;99.90
7574;DHT22;3828;48.922;9.116;2022-12-29T07:27:31;11.00;99.90
7574;DHT22;3828;48.922;9.116;2022-12-29T07:29:58;11.10;99.90
7574;DHT22;3828;48.922;9.116;2022-12-29T07:32:26;11.10;99.90
7574;DHT22;3828;48.922;9.116;2022-12-29T07:34:53;11.10;99.90
7574;DHT22;3828;48.922;9.116;2022-12-29T07:37:20;11.10;99.90
7574;DHT22;3828;48.922;9.116;2022-12-29T07:39:46;11.10;99.90
7574;DHT22;3828;48.922;9.116;2022-12-29T07:42:13;11.30;99.90
7574;DHT22;3828;48.922;9.116;2022-12-29T07:44:40;11.20;99.90
7574;DHT22;3828;48.922;9.116;2022-12-29T07:47:07;11.20;99.90
7574;DHT22;3828;48.922;9.116;2022-12-29T07:49:35;11.60;99.90
7574;DHT22;3828;48.922;9.116;2022-12-29T07:52:02;14.40;99.90
7574;DHT22;3828;48.922;9.116;2022-12-29T07:54:29;11.20;99.90
7574;DHT22;3828;48.922;9.116;2022-12-29T07:56:56;11.20;99.90
7574;DHT22;3828;48.922;9.116;2022-12-29T07:59:25;11.10;99.90
7574;DHT22;3828;48.922;9.116;2022-12-29T08:01:52;12.00;99.90
7574;DHT22;3828;48.922;9.116;2022-12-29T08:04:19;12.10;99.90
7574;DHT22;3828;48.922;9.116;2022-12-29T08:06:47;11.00;99.90
7574;DHT22;3828;48.922;9.116;2022-12-29T08:09:14;11.00;99.90
7574;DHT22;3828;48.922;9.116;2022-12-29T08:11:41;11.00;99.90
7574;DHT22;3828;48.922;9.116;2022-12-29T08:14:08;14.10;99.90
7574;DHT22;3828;48.922;9.116;2022-12-29T08:16:35;11.00;99.90
7574;DHT22;3828;48.922;9.116;2022-12-29T08:19:02;11.10;99.90
7574;DHT22;3828;48.922;9.116;2022-12-29T08:21:30;14.60;99.90
7574;DHT22;3828;48.922;9.116;2022-12-29T08:23:59;11.10;99.90
7574;DHT22;3828;48.922;9.116;2022-12-29T08:26:26;11.20;99.90
7574;DHT22;3828;48.922;9.116;2022-12-29T08:28:53;11.30;99.90
7574;DHT22;3828;48.922;9.116;2022-12-29T08:31:21;12.70;99.90
7574;DHT22;3828;48.922;9.116;2022-12-29T08:33:48;11.40;99.90
7574;DHT22;3828;48.922;9.116;2022-12-29T08:36:15;12.50;99.90
7574;DHT22;3828;48.922;9.116;2022-12-29T08:38:42;11.40;99.90
7574;DHT22;3828;48.922;9.116;2022-12-29T08:41:10;11.40;99.90
7574;DHT22;3828;48.922;9.116;2022-12-29T08:43:38;11.40;99.90
7574;DHT22;3828;48.922;9.116;2022-12-29T08:46:05;11.40;99.90
7574;DHT22;3828;48.922;9.116;2022-12-29T08:48:32;12.30;99.90
7574;DHT22;3828;48.922;9.116;2022-12-29T08:50:59;11.80;99.90
7574;DHT22;3828;48.922;9.116;2022-12-29T08:53:25;11.40;99.90
7574;DHT22;3828;48.922;9.116;2022-12-29T08:55:57;11.30;99.90
7574;DHT22;3828;48.922;9.116;2022-12-29T08:58:26;11.30;99.90
7574;DHT22;3828;48.922;9.116;2022-12-29T09:00:53;11.50;99.90
7574;DHT22;3828;48.922;9.116;2022-12-29T09:03:20;11.30;99.90
7574;DHT22;3828;48.922;9.116;2022-12-29T09:05:48;11.30;99.90
7574;DHT22;3828;48.922;9.116;2022-12-29T09:08:16;11.30;99.90
7574;DHT22;3828;48.922;9.116;2022-12-29T09:10:43;11.40;99.90
7574;DHT22;3828;48.922;9.116;2022-12-29T09:13:11;12.00;99.90
7574;DHT22;3828;48.922;9.116;2022-12-29T09:15:39;11.40;99.90
7574;DHT22;3828;48.922;9.116;2022-12-29T09:18:06;11.50;99.90
7574;DHT22;3828;48.922;9.116;2022-12-29T09:20:33;11.50;99.90
7574;DHT22;3828;48.922;9.116;2022-12-29T09:23:01;11.60;99.90
7574;DHT22;3828;48.922;9.116;2022-12-29T09:25:28;11.70;99.90
7574;DHT22;3828;48.922;9.116;2022-12-29T09:27:55;11.80;99.90
7574;DHT22;3828;48.922;9.116;2022-12-29T09:30:23;11.80;99.90
7574;DHT22;3828;48.922;9.116;2022-12-29T09:32:51;11.80;99.90
7574;DHT22;3828;48.922;9.116;2022-12-29T09:35:18;11.90;99.90
7574;DHT22;3828;48.922;9.116;2022-12-29T09:37:45;12.00;99.90
7574;DHT22;3828;48.922;9.116;2022-12-29T09:40:24;13.00;99.90
7574;DHT22;3828;48.922;9.116;2022-12-29T09:43:03;12.10;99.90
7574;DHT22;3828;48.922;9.116;2022-12-29T09:45:36;12.20;99.90
7574;DHT22;3828;48.922;9.116;2022-12-29T09:48:11;12.20;99.90
7574;DHT22;3828;48.922;9.116;2022-12-29T09:50:43;12.20;99.90
7574;DHT22;3828;48.922;9.116;2022-12-29T09:53:17;12.30;99.90
7574;DHT22;3828;48.922;9.116;2022-12-29T09:55:49;12.50;99.90
7574;DHT22;3828;48.922;9.116;2022-12-29T09:58:21;12.60;99.90
7574;DHT22;3828;48.922;9.116;2022-12-29T10:00:54;12.90;99.90
7574;DHT22;3828;48.922;9.116;2022-12-29T10:03:35;13.10;99.90
7574;DHT22;3828;48.922;9.116;2022-12-29T10:06:11;13.40;99.90
7574;DHT22;3828;48.922;9.116;2022-12-29T10:08:44;13.50;99.90
7574;DHT22;3828;48.922;9.116;2022-12-29T10:11:25;17.70;99.90
7574;DHT22;3828;48.922;9.116;2022-12-29T10:14:14;13.60;99.90
7574;DHT22;3828;48.922;9.116;2022-12-29T10:16:49;13.60;99.90
7574;DHT22;3828;48.922;9.116;2022-12-29T10:19:41;13.60;99.90
7574;DHT22;3828;48.922;9.116;2022-12-29T10:22:24;13.60;99.90
7574;DHT22;3828;48.922;9.116;2022-12-29T10:24:58;13.50;99.90
7574;DHT22;3828;48.922;9.116;2022-12-29T10:27:31;13.50;99.90
7574;DHT22;3828;48.922;9.116;2022-12-29T10:30:01;13.50;99.90
7574;DHT22;3828;48.922;9.116;2022-12-29T10:32:33;13.50;99.90
7574;DHT22;3828;48.922;9.116;2022-12-29T10:35:06;13.50;99.90
7574;DHT22;3828;48.922;9.116;2022-12-29T10:37:42;13.50;99.90
7574;DHT22;3828;48.922;9.116;2022-12-29T10:40:18;14.60;99.90
7574;DHT22;3828;48.922;9.116;2022-12-29T10:42:52;13.50;99.90
7574;DHT22;3828;48.922;9.116;2022-12-29T10:45:21;13.40;99.90
7574;DHT22;3828;48.922;9.116;2022-12-29T10:47:55;13.40;99.90
7574;DHT22;3828;48.922;9.116;2022-12-29T10:50:24;13.40;99.90
7574;DHT22;3828;48.922;9.116;2022-12-29T10:52:52;13.40;99.90
7574;DHT22;3828;48.922;9.116;2022-12-29T10:55:22;13.40;99.90
7574;DHT22;3828;48.922;9.116;2022-12-29T10:57:55;13.70;99.90
7574;DHT22;3828;48.922;9.116;2022-12-29T11:00:23;13.90;99.90
7574;DHT22;3828;48.922;9.116;2022-12-29T11:05:52;13.90;99.90
7574;DHT22;3828;48.922;9.116;2022-12-29T11:08:24;13.70;99.90
7574;DHT22;3828;48.922;9.116;2022-12-29T11:10:58;13.70;99.90
7574;DHT22;3828;48.922;9.116;2022-12-29T11:13:29;13.70;99.90
7574;DHT22;3828;48.922;9.116;2022-12-29T11:15:56;16.10;99.90
7574;DHT22;3828;48.922;9.116;2022-12-29T11:18:26;15.20;99.90
7574;DHT22;3828;48.922;9.116;2022-12-29T11:20:57;13.60;99.90
7574;DHT22;3828;48.922;9.116;2022-12-29T11:23:29;15.00;99.90
7574;DHT22;3828;48.922;9.116;2022-12-29T11:26:16;13.80;99.90
7574;DHT22;3828;48.922;9.116;2022-12-29T11:28:44;15.40;99.90
7574;DHT22;3828;48.922;9.116;2022-12-29T11:31:16;13.80;99.90
7574;DHT22;3828;48.922;9.116;2022-12-29T11:33:43;14.10;99.90
7574;DHT22;3828;48.922;9.116;2022-12-29T11:36:15;14.00;99.90
7574;DHT22;3828;48.922;9.116;2022-12-29T11:38:46;13.80;99.90
7574;DHT22;3828;48.922;9.116;2022-12-29T11:41:19;13.70;99.90
7574;DHT22;3828;48.922;9.116;2022-12-29T11:43:47;16.50;99.90
7574;DHT22;3828;48.922;9.116;2022-12-29T11:46:16;13.60;99.90
7574;DHT22;3828;48.922;9.116;2022-12-29T11:48:44;14.40;99.90
7574;DHT22;3828;48.922;9.116;2022-12-29T11:51:22;14.60;99.90
7574;DHT22;3828;48.922;9.116;2022-12-29T11:53:55;14.50;99.90
7574;DHT22;3828;48.922;9.116;2022-12-29T11:56:34;16.40;99.90
7574;DHT22;3828;48.922;9.116;2022-12-29T11:59:36;13.70;99.90
7574;DHT22;3828;48.922;9.116;2022-12-29T12:02:20;13.70;99.90
7574;DHT22;3828;48.922;9.116;2022-12-29T12:04:50;13.70;99.90
7574;DHT22;3828;48.922;9.116;2022-12-29T12:07:22;13.70;99.90
7574;DHT22;3828;48.922;9.116;2022-12-29T12:09:53;13.60;99.90
7574;DHT22;3828;48.922;9.116;2022-12-29T12:12:24;13.50;99.90
7574;DHT22;3828;48.922;9.116;2022-12-29T12:14:55;13.50;99.90
7574;DHT22;3828;48.922;9.116;2022-12-29T12:17:31;13.50;99.90
7574;DHT22;3828;48.922;9.116;2022-12-29T12:20:14;16.00;99.90
7574;DHT22;3828;48.922;9.116;2022-12-29T12:22:53;16.60;99.90
7574;DHT22;3828;48.922;9.116;2022-12-29T12:25:24;14.10;99.90
7574;DHT22;3828;48.922;9.116;2022-12-29T12:27:57;13.60;99.90
7574;DHT22;3828;48.922;9.116;2022-12-29T12:30:28;13.50;99.90
7574;DHT22;3828;48.922;9.116;2022-12-29T12:33:00;17.60;99.90
7574;DHT22;3828;48.922;9.116;2022-12-29T12:35:35;15.30;99.90
7574;DHT22;3828;48.922;9.116;2022-12-29T12:38:20;16.50;99.90
7574;DHT22;3828;48.922;9.116;2022-12-29T12:41:00;16.50;99.90
7574;DHT22;3828;48.922;9.116;2022-12-29T12:43:40;13.50;99.90
7574;DHT22;3828;48.922;9.116;2022-12-29T12:52:25;13.30;99.90
7574;DHT22;3828;48.922;9.116;2022-12-29T12:55:29;17.40;99.90
7574;DHT22;3828;48.922;9.116;2022-12-29T12:58:05;13.40;99.90
7574;DHT22;3828;48.922;9.116;2022-12-29T13:00:42;15.50;99.90
7574;DHT22;3828;48.922;9.116;2022-12-29T13:03:15;15.40;99.90
7574;DHT22;3828;48.922;9.116;2022-12-29T13:05:55;13.30;99.90
7574;DHT22;3828;48.922;9.116;2022-12-29T13:08:37;13.30;99.90
7574;DHT22;3828;48.922;9.116;2022-12-29T13:11:14;13.20;99.90
7574;DHT22;3828;48.922;9.116;2022-12-29T13:13:54;13.30;99.90
7574;DHT22;3828;48.922;9.116;2022-12-29T13:16:32;15.00;99.90
7574;DHT22;3828;48.922;9.116;2022-12-29T13:19:06;16.60;99.90
7574;DHT22;3828;48.922;9.116;2022-12-29T13:21:44;14.10;99.90
7574;DHT22;3828;48.922;9.116;2022-12-29T13:24:17;15.20;99.90
7574;DHT22;3828;48.922;9.116;2022-12-29T13:26:50;13.10;99.90
7574;DHT22;3828;48.922;9.116;2022-12-29T13:29:20;13.10;99.90
7574;DHT22;3828;48.922;9.116;2022-12-29T13:31:54;13.00;99.90
7574;DHT22;3828;48.922;9.116;2022-12-29T13:34:29;13.00;99.90
7574;DHT22;3828;48.922;9.116;2022-12-29T13:37:00;15.10;99.90
7574;DHT22;3828;48.922;9.116;2022-12-29T13:39:31;12.90;99.90
7574;DHT22;3828;48.922;9.116;2022-12-29T13:42:03;12.80;99.90
7574;DHT22;3828;48.922;9.116;2022-12-29T13:44:34;12.70;99.90
7574;DHT22;3828;48.922;9.116;2022-12-29T13:47:05;12.70;99.90
7574;DHT22;3828;48.922;9.116;2022-12-29T13:49:38;12.60;99.90
7574;DHT22;3828;48.922;9.116;2022-12-29T13:52:15;12.60;99.90
7574;DHT22;3828;48.922;9.116;2022-12-29T13:54:52;16.30;99.90
7574;DHT22;3828;48.922;9.116;2022-12-29T13:57:34;15.30;99.90
7574;DHT22;3828;48.922;9.116;2022-12-29T14:00:04;12.50;99.90
7574;DHT22;3828;48.922;9.116;2022-12-29T14:02:42;12.50;99.90
7574;DHT22;3828;48.922;9.116;2022-12-29T14:05:27;14.80;99.90
7574;DHT22;3828;48.922;9.116;2022-12-29T14:07:58;12.50;99.90
7574;DHT22;3828;48.922;9.116;2022-12-29T14:10:30;12.60;99.90
7574;DHT22;3828;48.922;9.116;2022-12-29T14:13:04;12.60;99.90
7574;DHT22;3828;48.922;9.116;2022-12-29T14:15:32;12.70;99.90
7574;DHT22;3828;48.922;9.116;2022-12-29T14:18:10;16.20;99.90
7574;DHT22;3828;48.922;9.116;2022-12-29T14:20:39;12.70;99.90
7574;DHT22;3828;48.922;9.116;2022-12-29T14:23:26;15.90;99.90
7574;DHT22;3828;48.922;9.116;2022-12-29T14:25:59;12.70;99.90
7574;DHT22;3828;48.922;9.116;2022-12-29T14:28:28;13.10;99.90
7574;DHT22;3828;48.922;9.116;2022-12-29T14:30:56;12.60;99.90
7574;DHT22;3828;48.922;9.116;2022-12-29T14:33:24;12.70;99.90
7574;DHT22;3828;48.922;9.116;2022-12-29T14:35:53;12.50;99.90
7574;DHT22;3828;48.922;9.116;2022-12-29T14:38:26;16.30;99.90
7574;DHT22;3828;48.922;9.116;2022-12-29T14:44:02;12.50;99.90
7574;DHT22;3828;48.922;9.116;2022-12-29T14:46:48;12.50;99.90
7574;DHT22;3828;48.922;9.116;2022-12-29T14:49:18;12.60;99.90
7574;DHT22;3828;48.922;9.116;2022-12-29T14:51:46;14.60;99.90
7574;DHT22;3828;48.922;9.116;2022-12-29T14:54:43;12.40;99.90
7574;DHT22;3828;48.922;9.116;2022-12-29T15:00:05;12.30;99.90
7574;DHT22;3828;48.922;9.116;2022-12-29T15:02:36;12.20;99.90
7574;DHT22;3828;48.922;9.116;2022-12-29T15:05:10;12.20;99.90
7574;DHT22;3828;48.922;9.116;2022-12-29T15:07:46;12.10;99.90
7574;DHT22;3828;48.922;9.116;2022-12-29T15:10:15;12.10;99.90
7574;DHT22;3828;48.922;9.116;2022-12-29T15:12:49;12.10;99.90
7574;DHT22;3828;48.922;9.116;2022-12-29T15:15:22;15.40;99.90
7574;DHT22;3828;48.922;9.116;2022-12-29T15:17:49;12.00;99.90
7574;DHT22;3828;48.922;9.116;2022-12-29T15:20:23;12.00;99.90
7574;DHT22;3828;48.922;9.116;2022-12-29T15:22:53;13.90;99.90
7574;DHT22;3828;48.922;9.116;2022-12-29T15:25:20;13.90;99.90
7574;DHT22;3828;48.922;9.116;2022-12-29T15:27:49;12.00;99.90
7574;DHT22;3828;48.922;9.116;2022-12-29T15:30:17;11.90;99.90
7574;DHT22;3828;48.922;9.116;2022-12-29T15:32:47;11.60;99.90
7574;DHT22;3828;48.922;9.116;2022-12-29T15:35:34;11.20;99.90
7574;DHT22;3828;48.922;9.116;2022-12-29T15:38:13;10.80;99.90
7574;DHT22;3828;48.922;9.116;2022-12-29T15:40:43;10.50;99.90
7574;DHT22;3828;48.922;9.116;2022-12-29T15:43:26;11.90;99.90
7574;DHT22;3828;48.922;9.116;2022-12-29T15:45:56;10.10;99.90
7574;DHT22;3828;48.922;9.116;2022-12-29T15:48:28;9.90;99.90
7574;DHT22;3828;48.922;9.116;2022-12-29T15:50:55;13.80;99.90
7574;DHT22;3828;48.922;9.116;2022-12-29T15:53:27;9.90;99.90
7574;DHT22;3828;48.922;9.116;2022-12-29T15:55:56;9.90;99.90
7574;DHT22;3828;48.922;9.116;2022-12-29T15:58:26;9.90;99.90
7574;DHT22;3828;48.922;9.116;2022-12-29T16:00:56;9.80;99.90
7574;DHT22;3828;48.922;9.116;2022-12-29T16:03:25;13.10;99.90
7574;DHT22;3828;48.922;9.116;2022-12-29T16:06:08;9.90;99.90
7574;DHT22;3828;48.922;9.116;2022-12-29T16:08:37;9.80;99.90
7574;DHT22;3828;48.922;9.116;2022-12-29T16:11:15;9.80;99.90
7574;DHT22;3828;48.922;9.116;2022-12-29T16:14:16;9.90;99.90
7574;DHT22;3828;48.922;9.116;2022-12-29T16:16:44;9.80;99.90
7574;DHT22;3828;48.922;9.116;2022-12-29T16:19:13;9.80;99.90
7574;DHT22;3828;48.922;9.116;2022-12-29T16:21:43;9.80;99.90
7574;DHT22;3828;48.922;9.116;2022-12-29T16:24:14;9.80;99.90
7574;DHT22;3828;48.922;9.116;2022-12-29T16:26:47;9.80;99.90
7574;DHT22;3828;48.922;9.116;2022-12-29T16:29:15;9.80;99.90
7574;DHT22;3828;48.922;9.116;2022-12-29T16:31:50;9.80;99.90
7574;DHT22;3828;48.922;9.116;2022-12-29T16:34:23;9.80;99.90
7574;DHT22;3828;48.922;9.116;2022-12-29T16:36:57;9.80;99.90
7574;DHT22;3828;48.922;9.116;2022-12-29T16:39:35;11.40;99.90
7574;DHT22;3828;48.922;9.116;2022-12-29T16:42:33;9.70;99.90
7574;DHT22;3828;48.922;9.116;2022-12-29T16:45:22;9.70;99.90
7574;DHT22;3828;48.922;9.116;2022-12-29T16:48:17;9.60;99.90
7574;DHT22;3828;48.922;9.116;2022-12-29T16:50:45;9.60;99.90